createdAt,value
2022-09-06T00:01:32.136Z,95404.84
2022-09-06T00:04:00.028Z,95403.41
2022-09-06T00:06:27.944Z,95405.09
2022-09-06T00:08:55.834Z,95402.25
2022-09-06T00:11:23.741Z,95406.38
2022-09-06T00:13:51.685Z,95407.78
2022-09-06T00:16:21.720Z,95408.31
2022-09-06T00:18:53.789Z,95405.16
2022-09-06T00:21:24.116Z,95392.75
2022-09-06T00:23:52.384Z,95394.44
2022-09-06T00:26:20.750Z,95384.06
2022-09-06T00:28:48.804Z,95395.13
2022-09-06T00:31:19.244Z,95393.09
2022-09-06T00:33:47.746Z,95386.78
2022-09-06T00:36:18.037Z,95384.53
2022-09-06T00:38:46.401Z,95390.28
2022-09-06T00:41:16.458Z,95383.84
2022-09-06T00:43:44.926Z,95389.72
2022-09-06T00:46:17.083Z,95395.69
2022-09-06T00:48:47.007Z,95384.75
2022-09-06T00:51:17.763Z,95388.69
2022-09-06T00:53:45.893Z,95388.13
2022-09-06T00:56:14.729Z,95392.19
2022-09-06T00:58:42.869Z,95400.41
2022-09-06T01:01:10.905Z,95409.63
2022-09-06T01:03:39.564Z,95409.53
2022-09-06T01:06:24.549Z,95406.47
2022-09-06T01:09:02.907Z,95406.41
2022-09-06T01:11:47.005Z,95396.63
2022-09-06T01:14:28.016Z,95404.53
2022-09-06T01:17:04.117Z,95398.28
2022-09-06T01:20:09.750Z,95399.09
2022-09-06T01:23:05.623Z,95404.50
2022-09-06T01:25:40.198Z,95417.19
2022-09-06T01:28:24.580Z,95408.75
2022-09-06T01:30:59.731Z,95402.66
2022-09-06T01:33:35.629Z,95413.94
2022-09-06T01:36:09.032Z,95419.38
2022-09-06T01:38:37.113Z,95420.84
2022-09-06T01:41:05.137Z,95422.41
2022-09-06T01:43:38.072Z,95430.78
2022-09-06T01:46:13.891Z,95432.13
2022-09-06T01:49:04.645Z,95433.28
2022-09-06T01:51:39.239Z,95426.84
2022-09-06T01:54:27.429Z,95429.69
2022-09-06T01:57:13.720Z,95431.47
2022-09-06T02:00:05.741Z,95424.72
2022-09-06T02:02:54.610Z,95426.50
2022-09-06T02:05:28.580Z,95415.47
2022-09-06T02:08:02.016Z,95425.59
2022-09-06T02:10:35.105Z,95421.09
2022-09-06T02:13:06.926Z,95424.94
2022-09-06T02:15:40.207Z,95421.56
2022-09-06T02:18:13.093Z,95418.72
2022-09-06T02:20:44.861Z,95421.19
2022-09-06T02:23:13.696Z,95418.38
2022-09-06T02:25:45.113Z,95426.56
2022-09-06T02:28:13.296Z,95418.72
2022-09-06T02:30:46.886Z,95413.34
2022-09-06T02:33:19.177Z,95412.38
2022-09-06T02:35:49.961Z,95415.50
2022-09-06T02:38:18.851Z,95409.03
2022-09-06T02:40:47.686Z,95419.38
2022-09-06T02:43:15.520Z,95420.03
2022-09-06T02:45:44.751Z,95419.31
2022-09-06T02:48:12.627Z,95425.03
2022-09-06T02:50:40.453Z,95417.09
2022-09-06T02:53:10.499Z,95414.13
2022-09-06T02:55:39.406Z,95416.16
2022-09-06T02:58:09.855Z,95423.03
2022-09-06T03:00:38.075Z,95422.34
2022-09-06T03:03:07.687Z,95421.38
2022-09-06T03:05:35.775Z,95414.41
2022-09-06T03:08:04.191Z,95413.41
2022-09-06T03:10:32.073Z,95408.81
2022-09-06T03:13:00.046Z,95411.94
2022-09-06T03:15:28.244Z,95416.81
2022-09-06T03:17:59.784Z,95410.81
2022-09-06T03:20:30.283Z,95403.00
2022-09-06T03:22:59.894Z,95408.00
2022-09-06T03:25:27.878Z,95392.09
2022-09-06T03:27:55.843Z,95396.69
2022-09-06T03:30:23.962Z,95386.50
2022-09-06T03:32:52.139Z,95391.97
2022-09-06T03:35:20.173Z,95391.31
2022-09-06T03:37:49.533Z,95391.94
2022-09-06T03:40:17.755Z,95392.28
2022-09-06T03:42:46.526Z,95392.03
2022-09-06T03:45:14.524Z,95385.13
2022-09-06T03:47:42.582Z,95397.72
2022-09-06T03:50:10.993Z,95399.19
2022-09-06T03:52:38.914Z,95401.72
2022-09-06T03:55:09.238Z,95408.66
2022-09-06T03:57:37.140Z,95412.00
2022-09-06T04:00:06.273Z,95396.91
2022-09-06T04:02:39.438Z,95395.03
2022-09-06T04:05:08.119Z,95403.16
2022-09-06T04:07:37.956Z,95406.09
2022-09-06T04:10:08.426Z,95401.19
2022-09-06T04:12:36.471Z,95414.59
2022-09-06T04:15:04.755Z,95415.72
2022-09-06T04:17:32.668Z,95424.75
2022-09-06T04:20:00.536Z,95412.19
2022-09-06T04:22:28.396Z,95407.22
2022-09-06T04:24:56.337Z,95397.94
2022-09-06T04:27:25.589Z,95398.81
2022-09-06T04:29:53.479Z,95403.03
2022-09-06T04:32:21.308Z,95408.22
2022-09-06T04:34:49.263Z,95399.25
2022-09-06T04:37:20.077Z,95407.16
2022-09-06T04:39:48.024Z,95405.88
2022-09-06T04:42:16.421Z,95403.22
2022-09-06T04:44:45.695Z,95408.31
2022-09-06T04:47:17.369Z,95402.63
2022-09-06T04:49:45.420Z,95414.09
2022-09-06T04:52:13.730Z,95413.69
2022-09-06T04:54:41.821Z,95421.22
2022-09-06T04:57:09.838Z,95408.78
2022-09-06T04:59:38.854Z,95421.34
2022-09-06T05:02:08.174Z,95427.56
2022-09-06T05:04:36.103Z,95420.84
2022-09-06T05:07:05.741Z,95428.19
2022-09-06T05:09:34.616Z,95426.50
2022-09-06T05:12:02.841Z,95426.50
2022-09-06T05:14:31.087Z,95433.69
2022-09-06T05:16:59.084Z,95440.22
2022-09-06T05:19:28.364Z,95449.59
2022-09-06T05:21:56.320Z,95438.16
2022-09-06T05:24:24.250Z,95445.91
2022-09-06T05:26:52.187Z,95453.66
2022-09-06T05:29:20.100Z,95448.97
2022-09-06T05:31:48.074Z,95466.88
2022-09-06T05:34:16.079Z,95468.81
2022-09-06T05:36:46.168Z,95480.41
2022-09-06T05:39:14.139Z,95477.72
2022-09-06T05:41:42.150Z,95482.50
2022-09-06T05:44:10.108Z,95485.56
2022-09-06T05:46:43.611Z,95509.13
2022-09-06T05:49:11.691Z,95508.56
2022-09-06T05:51:40.174Z,95499.41
2022-09-06T05:54:12.651Z,95486.94
2022-09-06T05:56:40.533Z,95503.03
2022-09-06T05:59:08.423Z,95507.84
2022-09-06T06:01:36.419Z,95513.38
2022-09-06T06:04:08.001Z,95523.66
2022-09-06T06:06:36.215Z,95520.09
2022-09-06T06:09:04.200Z,95534.16
2022-09-06T06:11:33.669Z,95537.03
2022-09-06T06:14:01.644Z,95534.81
2022-09-06T06:16:29.649Z,95536.50
2022-09-06T06:18:58.094Z,95536.81
2022-09-06T06:21:27.605Z,95528.34
2022-09-06T06:23:58.163Z,95532.53
2022-09-06T06:26:27.184Z,95534.88
2022-09-06T06:28:57.867Z,95533.16
2022-09-06T06:31:25.785Z,95527.41
2022-09-06T06:33:53.788Z,95542.47
2022-09-06T06:36:23.684Z,95540.25
2022-09-06T06:38:55.239Z,95556.00
2022-09-06T06:41:25.004Z,95559.63
2022-09-06T06:43:53.770Z,95557.28
2022-09-06T06:46:24.629Z,95560.66
2022-09-06T06:48:55.224Z,95571.69
2022-09-06T06:51:25.001Z,95575.44
2022-09-06T06:53:53.492Z,95580.19
2022-09-06T06:56:23.024Z,95587.63
2022-09-06T06:58:52.640Z,95599.72
2022-09-06T07:01:23.289Z,95588.59
2022-09-06T07:03:51.744Z,95593.81
2022-09-06T07:06:21.182Z,95592.34
2022-09-06T07:08:49.843Z,95590.53
2022-09-06T07:11:21.610Z,95591.94
2022-09-06T07:13:52.431Z,95590.31
2022-09-06T07:16:23.470Z,95589.84
2022-09-06T07:18:53.188Z,95602.31
2022-09-06T07:21:41.357Z,95601.75
2022-09-06T07:24:09.922Z,95610.91
2022-09-06T07:26:40.142Z,95615.31
2022-09-06T07:29:09.555Z,95614.81
2022-09-06T07:34:28.035Z,95613.09
2022-09-06T07:36:56.366Z,95603.19
2022-09-06T07:39:24.379Z,95589.56
2022-09-06T07:41:52.486Z,95579.75
2022-09-06T07:44:20.417Z,95587.63
2022-09-06T07:46:50.095Z,95594.06
2022-09-06T07:49:18.004Z,95598.94
2022-09-06T07:51:45.880Z,95590.63
2022-09-06T07:54:29.766Z,95592.03
2022-09-06T07:56:58.123Z,95579.03
2022-09-06T07:59:26.086Z,95577.22
2022-09-06T08:01:55.515Z,95569.59
2022-09-06T08:04:23.482Z,95567.66
2022-09-06T08:09:41.123Z,95556.16
2022-09-06T08:12:09.724Z,95558.50
2022-09-06T08:14:37.733Z,95552.00
2022-09-06T08:17:07.207Z,95555.34
2022-09-06T08:19:35.529Z,95566.69
2022-09-06T08:22:03.500Z,95551.66
2022-09-06T08:24:31.725Z,95550.91
2022-09-06T08:26:59.597Z,95550.81
2022-09-06T08:29:27.949Z,95546.91
2022-09-06T08:31:55.893Z,95541.59
2022-09-06T08:34:25.306Z,95539.75
2022-09-06T08:36:53.289Z,95531.34
2022-09-06T08:39:21.243Z,95529.41
2022-09-06T08:41:53.228Z,95523.09
2022-09-06T08:47:14.425Z,95521.25
2022-09-06T08:49:46.258Z,95518.88
2022-09-06T08:52:49.461Z,95527.69
2022-09-06T08:55:35.197Z,95534.34
2022-09-06T08:58:14.876Z,95538.53
2022-09-06T09:00:49.293Z,95525.69
2022-09-06T09:03:19.821Z,95530.25
2022-09-06T09:05:53.112Z,95518.56
2022-09-06T09:08:25.223Z,95519.44
2022-09-06T09:10:56.168Z,95504.09
2022-09-06T09:13:30.351Z,95516.22
2022-09-06T09:15:58.324Z,95500.59
2022-09-06T09:18:31.303Z,95500.09
2022-09-06T09:21:00.635Z,95491.19
2022-09-06T09:23:30.055Z,95488.41
2022-09-06T09:26:03.349Z,95487.66
2022-09-06T09:28:31.547Z,95481.78
2022-09-06T09:30:59.824Z,95486.63
2022-09-06T09:33:34.271Z,95486.31
2022-09-06T09:36:12.819Z,95482.94
2022-09-06T09:38:44.001Z,95485.63
2022-09-06T09:41:26.183Z,95487.56
2022-09-06T09:44:03.686Z,95477.34
2022-09-06T09:46:34.232Z,95476.59
2022-09-06T09:49:05.893Z,95478.69
2022-09-06T09:51:40.090Z,95485.47
2022-09-06T09:54:09.733Z,95486.78
2022-09-06T09:56:45.405Z,95478.66
2022-09-06T09:59:21.608Z,95481.03
2022-09-06T10:01:49.839Z,95485.16
2022-09-06T10:07:17.559Z,95469.78
2022-09-06T10:09:48.637Z,95467.88
2022-09-06T10:12:28.403Z,95471.72
2022-09-06T10:14:57.869Z,95472.00
2022-09-06T10:17:31.755Z,95474.69
2022-09-06T10:20:03.504Z,95467.38
2022-09-06T10:22:36.454Z,95460.03
2022-09-06T10:25:48.971Z,95460.56
2022-09-06T10:28:41.795Z,95461.81
2022-09-06T10:31:25.393Z,95462.47
2022-09-06T10:34:07.676Z,95460.72
2022-09-06T10:36:38.276Z,95456.47
2022-09-06T10:39:19.877Z,95464.09
2022-09-06T10:42:07.821Z,95461.47
2022-09-06T10:44:52.394Z,95450.84
2022-09-06T10:47:20.448Z,95457.34
2022-09-06T10:49:55.046Z,95463.47
2022-09-06T10:52:29.126Z,95454.75
2022-09-06T10:55:04.928Z,95451.69
2022-09-06T11:00:28.633Z,95439.81
2022-09-06T11:06:00.297Z,95440.97
2022-09-06T11:08:53.495Z,95436.09
2022-09-06T11:11:29.699Z,95432.72
2022-09-06T11:13:57.547Z,95435.66
2022-09-06T11:16:30.059Z,95433.88
2022-09-06T11:19:02.416Z,95439.22
2022-09-06T11:22:16.309Z,95434.66
2022-09-06T11:25:04.527Z,95431.44
2022-09-06T11:27:39.282Z,95432.25
2022-09-06T11:30:08.259Z,95423.38
2022-09-06T11:32:40.563Z,95420.41
2022-09-06T11:35:11.198Z,95422.50
2022-09-06T11:37:42.932Z,95419.63
2022-09-06T11:43:19.312Z,95417.63
2022-09-06T11:45:50.785Z,95419.31
2022-09-06T11:48:37.215Z,95412.56
2022-09-06T11:51:10.868Z,95412.63
2022-09-06T11:54:06.538Z,95409.00
2022-09-06T11:56:41.671Z,95414.50
2022-09-06T11:59:25.805Z,95419.81
2022-09-06T12:02:04.872Z,95409.69
2022-09-06T12:05:07.472Z,95405.28
2022-09-06T12:07:36.671Z,95397.09
2022-09-06T12:10:44.174Z,95403.50
2022-09-06T12:13:39.758Z,95401.31
2022-09-06T12:16:10.265Z,95405.59
2022-09-06T12:19:03.871Z,95404.81
2022-09-06T12:21:47.464Z,95395.28
2022-09-06T12:24:53.687Z,95390.69
2022-09-06T12:27:23.392Z,95393.09
2022-09-06T12:29:55.245Z,95392.31
2022-09-06T12:32:28.409Z,95384.16
2022-09-06T12:37:52.403Z,95383.25
2022-09-06T12:40:22.987Z,95383.75
2022-09-06T12:42:52.241Z,95380.06
2022-09-06T12:45:25.208Z,95381.44
2022-09-06T12:48:09.089Z,95375.34
2022-09-06T12:50:37.624Z,95378.53
2022-09-06T12:53:23.383Z,95361.94
2022-09-06T12:56:04.330Z,95367.31
2022-09-06T12:58:32.236Z,95366.16
2022-09-06T13:01:06.905Z,95364.22
2022-09-06T13:03:39.529Z,95358.63
2022-09-06T13:06:08.778Z,95361.56
2022-09-06T13:08:42.429Z,95369.72
2022-09-06T13:11:14.457Z,95368.66
2022-09-06T13:13:48.977Z,95356.97
2022-09-06T13:16:24.973Z,95357.63
2022-09-06T13:18:55.288Z,95352.34
2022-09-06T13:21:31.101Z,95355.09
2022-09-06T13:24:04.035Z,95351.44
2022-09-06T13:26:37.004Z,95347.53
2022-09-06T13:29:13.211Z,95341.00
2022-09-06T13:31:46.925Z,95346.59
2022-09-06T13:34:23.215Z,95343.97
2022-09-06T13:36:52.546Z,95352.94
2022-09-06T13:39:32.540Z,95333.00
2022-09-06T13:42:07.453Z,95331.16
2022-09-06T13:44:36.838Z,95325.38
2022-09-06T13:47:05.500Z,95321.47
2022-09-06T13:49:34.893Z,95321.91
2022-09-06T13:52:04.603Z,95310.94
2022-09-06T13:54:34.989Z,95313.69
2022-09-06T13:57:02.819Z,95326.44
2022-09-06T13:59:31.547Z,95319.59
2022-09-06T14:02:02.737Z,95312.56
2022-09-06T14:04:31.918Z,95311.88
2022-09-06T14:07:01.403Z,95321.22
2022-09-06T14:09:29.495Z,95314.69
2022-09-06T14:11:57.759Z,95311.38
2022-09-06T14:14:25.818Z,95308.94
2022-09-06T14:16:54.065Z,95303.16
2022-09-06T14:19:22.071Z,95301.72
2022-09-06T14:21:50.187Z,95303.81
2022-09-06T14:24:19.608Z,95297.31
2022-09-06T14:26:47.560Z,95306.03
2022-09-06T14:29:15.395Z,95305.16
2022-09-06T14:31:43.280Z,95300.50
2022-09-06T14:34:11.156Z,95306.16
2022-09-06T14:36:39.331Z,95297.34
2022-09-06T14:39:07.690Z,95301.81
2022-09-06T14:41:37.617Z,95307.69
2022-09-06T14:44:05.731Z,95300.75
2022-09-06T14:46:33.737Z,95302.13
2022-09-06T14:49:03.253Z,95296.47
2022-09-06T14:51:31.583Z,95298.25
2022-09-06T14:54:01.017Z,95297.47
2022-09-06T14:56:29.403Z,95293.28
2022-09-06T14:58:59.969Z,95291.72
2022-09-06T15:01:34.079Z,95287.69
2022-09-06T15:04:05.115Z,95294.50
2022-09-06T15:06:34.759Z,95289.19
2022-09-06T15:09:02.770Z,95281.34
2022-09-06T15:11:34.472Z,95277.34
2022-09-06T15:14:06.315Z,95271.72
2022-09-06T15:16:35.170Z,95279.53
2022-09-06T15:19:03.753Z,95281.91
2022-09-06T15:21:32.357Z,95283.25
2022-09-06T15:24:01.996Z,95281.09
2022-09-06T15:26:30.521Z,95275.28
2022-09-06T15:29:02.002Z,95278.69
2022-09-06T15:31:33.895Z,95271.78
2022-09-06T15:34:02.848Z,95272.06
2022-09-06T15:36:31.160Z,95264.38
2022-09-06T15:39:01.280Z,95264.69
2022-09-06T15:41:32.371Z,95259.47
2022-09-06T15:44:02.260Z,95248.16
2022-09-06T15:46:45.350Z,95249.16
2022-09-06T15:49:15.328Z,95251.69
2022-09-06T15:51:43.752Z,95247.22
2022-09-06T15:54:14.023Z,95246.56
2022-09-06T15:56:42.193Z,95242.69
2022-09-06T15:59:10.774Z,95252.66
2022-09-06T16:01:39.635Z,95253.50
2022-09-06T16:04:08.951Z,95251.66
2022-09-06T16:06:40.700Z,95250.53
2022-09-06T16:09:11.072Z,95245.25
2022-09-06T16:11:39.067Z,95249.47
2022-09-06T16:14:08.686Z,95246.97
2022-09-06T16:16:37.077Z,95245.88
2022-09-06T16:19:05.577Z,95253.09
2022-09-06T16:21:37.788Z,95251.69
2022-09-06T16:24:08.008Z,95253.91
2022-09-06T16:26:38.141Z,95251.97
2022-09-06T16:29:08.306Z,95253.63
2022-09-06T16:31:40.730Z,95245.66
2022-09-06T16:34:09.132Z,95246.50
2022-09-06T16:36:39.039Z,95247.78
2022-09-06T16:39:07.473Z,95244.38
2022-09-06T16:41:40.574Z,95255.50
2022-09-06T16:44:09.313Z,95256.44
2022-09-06T16:46:40.085Z,95251.09
2022-09-06T16:49:08.310Z,95260.94
2022-09-06T16:51:37.876Z,95255.38
2022-09-06T16:54:06.058Z,95257.28
2022-09-06T16:56:36.066Z,95258.47
2022-09-06T16:59:06.320Z,95255.50
2022-09-06T17:01:35.413Z,95261.94
2022-09-06T17:04:04.519Z,95256.66
2022-09-06T17:06:34.184Z,95259.47
2022-09-06T17:09:03.609Z,95249.22
2022-09-06T17:11:32.064Z,95249.50
2022-09-06T17:14:00.003Z,95242.41
2022-09-06T17:16:45.365Z,95223.13
2022-09-06T17:19:13.890Z,95231.75
2022-09-06T17:21:41.919Z,95231.34
2022-09-06T17:24:11.637Z,95229.91
2022-09-06T17:26:41.058Z,95224.53
2022-09-06T17:29:10.418Z,95219.69
2022-09-06T17:31:38.943Z,95215.56
2022-09-06T17:34:07.145Z,95224.09
2022-09-06T17:36:36.458Z,95225.28
2022-09-06T17:39:06.378Z,95233.72
2022-09-06T17:41:38.928Z,95225.91
2022-09-06T17:44:10.482Z,95240.03
2022-09-06T17:46:47.700Z,95233.06
2022-09-06T17:49:20.488Z,95227.06
2022-09-06T17:51:49.578Z,95233.66
2022-09-06T17:54:17.755Z,95238.19
2022-09-06T17:56:47.304Z,95239.78
2022-09-06T17:59:15.851Z,95232.00
2022-09-06T18:01:45.855Z,95238.34
2022-09-06T18:04:16.015Z,95251.94
2022-09-06T18:06:46.888Z,95256.19
2022-09-06T18:09:17.943Z,95255.72
2022-09-06T18:11:47.431Z,95261.75
2022-09-06T18:14:20.926Z,95262.00
2022-09-06T18:16:49.997Z,95259.91
2022-09-06T18:19:18.809Z,95247.66
2022-09-06T18:21:48.138Z,95253.44
2022-09-06T18:24:16.661Z,95254.25
2022-09-06T18:26:45.261Z,95261.28
2022-09-06T18:29:17.950Z,95256.31
2022-09-06T18:31:46.138Z,95249.22
2022-09-06T18:34:15.916Z,95255.75
2022-09-06T18:36:43.971Z,95252.34
2022-09-06T18:39:13.200Z,95247.63
2022-09-06T18:41:58.715Z,95249.97
2022-09-06T18:44:32.284Z,95246.06
2022-09-06T18:47:02.382Z,95251.53
2022-09-06T18:49:31.243Z,95228.31
2022-09-06T18:51:59.574Z,95254.41
2022-09-06T18:54:27.915Z,95250.50
2022-09-06T18:56:56.339Z,95262.50
2022-09-06T18:59:24.712Z,95257.56
2022-09-06T19:01:54.251Z,95247.91
2022-09-06T19:04:22.527Z,95247.66
2022-09-06T19:06:50.793Z,95237.47
2022-09-06T19:09:19.169Z,95245.56
2022-09-06T19:11:51.244Z,95245.28
2022-09-06T19:14:19.181Z,95253.38
2022-09-06T19:16:48.635Z,95251.31
2022-09-06T19:19:18.078Z,95245.03
2022-09-06T19:21:46.031Z,95240.34
2022-09-06T19:24:14.987Z,95238.25
2022-09-06T19:26:45.049Z,95236.94
2022-09-06T19:29:16.025Z,95230.91
2022-09-06T19:31:45.035Z,95227.78
2022-09-06T19:34:15.304Z,95230.91
2022-09-06T19:36:45.944Z,95229.59
2022-09-06T19:39:16.564Z,95221.78
2022-09-06T19:41:46.991Z,95212.09
2022-09-06T19:44:15.459Z,95213.63
2022-09-06T19:46:46.157Z,95207.34
2022-09-06T19:49:15.418Z,95208.91
2022-09-06T19:51:46.392Z,95209.16
2022-09-06T19:54:15.575Z,95214.63
2022-09-06T19:56:44.774Z,95201.56
2022-09-06T19:59:14.002Z,95202.34
2022-09-06T20:01:44.133Z,95196.59
2022-09-06T20:04:13.385Z,95196.06
2022-09-06T20:06:41.929Z,95194.50
2022-09-06T20:09:12.019Z,95177.25
2022-09-06T20:11:41.801Z,95187.16
2022-09-06T20:14:10.792Z,95185.34
2022-09-06T20:16:41.876Z,95191.56
2022-09-06T20:19:11.980Z,95193.88
2022-09-06T20:21:40.235Z,95173.53
2022-09-06T20:24:08.685Z,95173.03
2022-09-06T20:26:38.206Z,95166.22
2022-09-06T20:29:06.886Z,95167.78
2022-09-06T20:31:36.954Z,95168.28
2022-09-06T20:34:06.364Z,95163.81
2022-09-06T20:36:34.638Z,95176.56
2022-09-06T20:39:03.161Z,95169.25
2022-09-06T20:41:31.183Z,95162.19
2022-09-06T20:44:01.198Z,95166.59
2022-09-06T20:46:30.687Z,95160.59
2022-09-06T20:49:03.625Z,95163.69
2022-09-06T20:51:32.946Z,95158.19
2022-09-06T20:54:02.883Z,95117.41
2022-09-06T20:56:33.275Z,95156.56
2022-09-06T20:59:04.863Z,95141.16
2022-09-06T21:01:35.224Z,95152.66
2022-09-06T21:04:04.837Z,95147.69
2022-09-06T21:06:35.586Z,95139.09
2022-09-06T21:09:04.488Z,95146.38
2022-09-06T21:11:32.965Z,95138.81
2022-09-06T21:14:02.721Z,95136.19
2022-09-06T21:16:31.582Z,95135.16
2022-09-06T21:19:00.817Z,95129.69
2022-09-06T21:21:30.441Z,95118.16
2022-09-06T21:23:58.503Z,95135.59
2022-09-06T21:26:26.577Z,95123.31
2022-09-06T21:28:55.127Z,95132.44
2022-09-06T21:31:26.333Z,95126.69
2022-09-06T21:33:55.851Z,95138.63
2022-09-06T21:36:27.561Z,95130.34
2022-09-06T21:38:56.843Z,95141.75
2022-09-06T21:41:25.127Z,95137.06
2022-09-06T21:43:54.198Z,95139.63
2022-09-06T21:46:31.894Z,95143.50
2022-09-06T21:49:04.683Z,95145.56
2022-09-06T21:51:33.441Z,95151.84
2022-09-06T21:54:04.282Z,95153.59
2022-09-06T21:56:33.905Z,95158.06
2022-09-06T21:59:01.908Z,95151.53
2022-09-06T22:01:34.323Z,95148.19
2022-09-06T22:04:03.255Z,95150.75
2022-09-06T22:06:32.920Z,95161.97
2022-09-06T22:09:04.498Z,95158.06
2022-09-06T22:11:34.539Z,95160.06
2022-09-06T22:14:04.654Z,95151.25
2022-09-06T22:16:35.805Z,95157.72
2022-09-06T22:19:05.021Z,95151.69
2022-09-06T22:21:33.953Z,95149.72
2022-09-06T22:24:03.477Z,95145.97
2022-09-06T22:26:33.621Z,95150.63
2022-09-06T22:29:02.815Z,95153.25
2022-09-06T22:31:33.838Z,95141.88
2022-09-06T22:34:02.116Z,95138.28
2022-09-06T22:36:30.154Z,95147.91
2022-09-06T22:38:58.916Z,95155.47
2022-09-06T22:41:28.996Z,95140.34
2022-09-06T22:43:57.139Z,95146.53
2022-09-06T22:46:25.862Z,95138.44
2022-09-06T22:48:55.460Z,95144.59
2022-09-06T22:51:23.429Z,95134.47
2022-09-06T22:53:51.626Z,95125.56
2022-09-06T22:56:19.754Z,95124.06
2022-09-06T22:58:47.676Z,95125.69
2022-09-06T23:01:17.397Z,95123.56
2022-09-06T23:03:46.434Z,95126.47
2022-09-06T23:06:15.676Z,95129.09
2022-09-06T23:08:43.839Z,95127.25
2022-09-06T23:11:13.694Z,95122.59
2022-09-06T23:13:43.663Z,95129.59
2022-09-06T23:16:13.832Z,95118.31
2022-09-06T23:18:41.805Z,95116.06
2022-09-06T23:21:11.569Z,95108.44
2022-09-06T23:23:41.766Z,95106.50
2022-09-06T23:26:11.401Z,95103.81
2022-09-06T23:28:39.601Z,95104.97
2022-09-06T23:31:10.997Z,95095.56
2022-09-06T23:33:39.533Z,95101.69
2022-09-06T23:36:09.219Z,95099.13
2022-09-06T23:38:39.005Z,95093.47
2022-09-06T23:41:10.382Z,95092.38
2022-09-06T23:43:38.796Z,95089.38
2022-09-06T23:46:06.818Z,95081.47
2022-09-06T23:48:34.818Z,95084.50
2022-09-06T23:51:03.022Z,95086.94
2022-09-06T23:53:31.414Z,95090.38
2022-09-06T23:55:59.304Z,95084.53
2022-09-06T23:58:28.621Z,95086.09
